La Porsche — VY9305 — position and weather

sailwx.info

Track history (hours):
 
Tides and Currents Weather Stations Pressure Air Temp Water Temp Dewpoint Dewpoint Depression Visibility Wind Speed Wind Dir Waves Ship Positions

La Porsche

Last reported at 2014-Jul-29 20:31 UTC. Time now 2014-Sep-03 04:53 UTC.
Position N 48°33' W 124°27'.
Warning: this ship's position is 35 days out of date.

Length 22 m; draft 3 m.

Type: Fishing. MMSI: 316001649.

Date/timePositionNaut miles runAvg speedWind from/ knotsBaromVisibWave heightAir tempDewpointWater temp
2014-Jul-29 20:31N 48°33' W 124°27'0 0.3
2014-Jul-29 19:33N 48°34' W 124°27'0 0.4
2014-Jul-29 18:34N 48°33' W 124°28'1 0.6
2014-Jul-29 17:34N 48°33' W 124°28'0 0.2
2014-Jul-29 16:33N 48°33' W 124°29'5 4.7
2014-Jul-29 15:33N 48°29' W 124°24'9 8.6
2014-Jul-29 14:33N 48°25' W 124°13'8 8.1
2014-Jul-29 13:33N 48°22' W 124°02'21 6.9
2014-Jul-29 10:32N 48°16' W 123°32'6 6.6
2014-Jul-29 09:33N 48°19' W 123°23'8 8.1
2014-Jul-29 08:33N 48°24' W 123°14'8 8.1
2014-Jul-29 07:33N 48°32' W 123°13'10 9.6
2014-Jul-29 06:33N 48°41' W 123°16'10 9.0
2014-Jul-29 05:27N 48°51' W 123°21'7 8.0
2014-Jul-29 04:33N 48°57' W 123°18'9 8.6
2014-Jul-29 03:33N 49°06' W 123°18'7 7.5
2014-Jul-29 02:33N 49°07' W 123°07'8 8.5
2014-Jul-29 01:34N 49°10' W 122°55'0 0.5
2014-Jul-29 00:33N 49°11' W 122°55'0 0.0
2014-Jul-28 23:33N 49°11' W 122°55'0 0.0
2014-Jul-28 22:33N 49°11' W 122°55'0 0.0
2014-Jul-28 21:33N 49°11' W 122°55'0 0.0
2014-Jul-28 20:33N 49°11' W 122°55'0 0.0
2014-Jul-28 19:33N 49°11' W 122°55'0 0.0
2014-Jul-28 18:33N 49°11' W 122°55'0 0.0
2014-Jul-28 17:33N 49°11' W 122°55'0 0.0
2014-Jul-28 16:33N 49°11' W 122°55'0 0.0
2014-Jul-28 15:33N 49°11' W 122°55'0 0.0
2014-Jul-28 14:33N 49°11' W 122°55'0 0.0
2014-Jul-28 13:33N 49°11' W 122°55'0 0.0
2014-Jul-28 12:33N 49°11' W 122°55'0 0.0
2014-Jul-28 11:33N 49°11' W 122°55'0 0.0
2014-Jul-28 10:33N 49°11' W 122°55'0 0.0
2014-Jul-28 09:33N 49°11' W 122°55'0 0.0
2014-Jul-28 08:33N 49°11' W 122°55'0 0.0
2014-Jul-28 07:34N 49°11' W 122°55'0 0.0
2014-Jul-28 06:33N 49°11' W 122°55'0 0.0
2014-Jul-28 05:33N 49°11' W 122°55'0 0.0
2014-Jul-28 04:33N 49°11' W 122°55'0 0.0
2014-Jul-28 03:33N 49°11' W 122°55'0 0.0
2014-Jul-28 02:33N 49°11' W 122°55'0 0.0
2014-Jul-28 01:33N 49°11' W 122°55'0 0.0
2014-Jul-28 00:33N 49°11' W 122°55'0 0.0
2014-Jul-27 23:33N 49°11' W 122°55'0 0.0
2014-Jul-27 22:33N 49°11' W 122°55'0 0.0
2014-Jul-27 21:33N 49°11' W 122°55'0 0.0
2014-Jul-27 20:33N 49°11' W 122°55'0 0.0
2014-Jul-27 19:33N 49°11' W 122°55'0 0.0
2014-Jul-27 18:33N 49°11' W 122°55'0 0.0
2014-Jul-27 17:33N 49°11' W 122°55'0 0.0
2014-Jul-27 16:33N 49°11' W 122°55'0 0.0
2014-Jul-27 15:33N 49°11' W 122°55'0 0.0
2014-Jul-27 14:33N 49°11' W 122°55'0 0.0
2014-Jul-27 13:33N 49°11' W 122°55'0 0.0
2014-Jul-27 12:33N 49°11' W 122°55'0 0.0
2014-Jul-27 11:33N 49°11' W 122°55'0 0.0
2014-Jul-27 10:33N 49°11' W 122°55'0 0.0
2014-Jul-27 09:33N 49°11' W 122°55'0 0.0
2014-Jul-27 08:33N 49°11' W 122°55'0 0.0
2014-Jul-27 07:33N 49°11' W 122°55'0 0.0
2014-Jul-27 06:34N 49°11' W 122°55'0 0.0
2014-Jul-27 05:33N 49°11' W 122°55'0 0.0
2014-Jul-27 04:34N 49°11' W 122°55'0 0.0
2014-Jul-27 03:33N 49°11' W 122°55'0 0.0
2014-Jul-27 02:33N 49°11' W 122°55'0 0.0
2014-Jul-27 01:33N 49°11' W 122°55'0 0.0
2014-Jul-27 00:33N 49°11' W 122°55'0 0.0
2014-Jul-26 23:33N 49°11' W 122°55'0 0.0
2014-Jul-26 22:33N 49°11' W 122°55'0 0.0
2014-Jul-26 21:33N 49°11' W 122°55'0 0.0
2014-Jul-26 20:33N 49°11' W 122°55'0 0.0
2014-Jul-26 19:33N 49°11' W 122°55'0 0.0
2014-Jul-26 18:33N 49°11' W 122°55'0 0.0
2014-Jul-26 17:33N 49°11' W 122°55'0 0.0
2014-Jul-26 16:33N 49°11' W 122°55'0 0.0
2014-Jul-26 15:33N 49°11' W 122°55'0 0.0
2014-Jul-26 14:33N 49°11' W 122°55'0 0.0
2014-Jul-26 13:33N 49°11' W 122°55'0 0.0
2014-Jul-26 12:33N 49°11' W 122°55'0 0.0
2014-Jul-26 11:33N 49°11' W 122°55'0 0.0
2014-Jul-26 10:33N 49°11' W 122°55'0 0.0
2014-Jul-26 09:33N 49°11' W 122°55'0 0.0
2014-Jul-26 08:33N 49°11' W 122°55'0 0.0
2014-Jul-26 07:33N 49°11' W 122°55'0 0.0
2014-Jul-26 06:33N 49°11' W 122°55'0 0.0
2014-Jul-26 05:33N 49°11' W 122°55'0 0.0
2014-Jul-26 04:33N 49°11' W 122°55'0 0.0
2014-Jul-26 03:33N 49°11' W 122°55'0 0.0
2014-Jul-26 02:33N 49°11' W 122°55'0 0.0
2014-Jul-26 01:33N 49°11' W 122°55'0 0.0
2014-Jul-26 00:33N 49°11' W 122°55'0 0.0
2014-Jul-25 23:33N 49°11' W 122°55'0 0.0
2014-Jul-25 22:33N 49°11' W 122°55'0 0.0
2014-Jul-25 21:33N 49°11' W 122°55'0 0.0
2014-Jul-25 20:33N 49°11' W 122°55'0 0.0
2014-Jul-25 19:33N 49°11' W 122°55'0 0.0
2014-Jul-25 18:33N 49°11' W 122°55'0 0.0
2014-Jul-25 17:33N 49°11' W 122°55'0 0.0
2014-Jul-25 16:33N 49°11' W 122°55'0 0.0
2014-Jul-25 15:33N 49°11' W 122°55'0 0.0
2014-Jul-25 14:33N 49°11' W 122°55'0 0.0
2014-Jul-25 13:33N 49°11' W 122°55'0 0.0
2014-Jul-25 12:33N 49°11' W 122°55'0 0.0
2014-Jul-25 11:33N 49°11' W 122°55'0 0.0
2014-Jul-25 10:33N 49°11' W 122°55'0 0.0
2014-Jul-25 09:33N 49°11' W 122°55'0 0.0
2014-Jul-25 08:33N 49°11' W 122°55'0 0.0
2014-Jul-25 07:33N 49°11' W 122°55'0 0.0
2014-Jul-25 06:33N 49°11' W 122°55'0 0.0
2014-Jul-25 05:33N 49°11' W 122°55'0 0.0
2014-Jul-25 04:33N 49°11' W 122°55'0 0.0
2014-Jul-25 03:33N 49°11' W 122°55'0 0.0
2014-Jul-25 02:33N 49°11' W 122°55'0 0.0
2014-Jul-25 01:33N 49°11' W 122°55'0 0.0
2014-Jul-25 00:33N 49°11' W 122°55'0 0.0
2014-Jul-24 23:34N 49°11' W 122°55'0 0.0
2014-Jul-24 22:33N 49°11' W 122°55'0 0.0
2014-Jul-24 21:33N 49°11' W 122°55'0 0.0
2014-Jul-24 20:33N 49°11' W 122°55'0 0.0
2014-Jul-24 19:33N 49°11' W 122°55'0 0.0
2014-Jul-24 18:33N 49°11' W 122°55'0 0.0
2014-Jul-24 17:33N 49°11' W 122°55'0 0.0
2014-Jul-24 16:33N 49°11' W 122°55'0 0.0
2014-Jul-24 15:33N 49°11' W 122°55'0 0.0
2014-Jul-24 14:33N 49°11' W 122°55'0 0.0
2014-Jul-24 13:33N 49°11' W 122°55'0 0.0
2014-Jul-24 12:33N 49°11' W 122°55'0 0.0
2014-Jul-24 08:33N 49°11' W 122°55'0 0.0
2014-Jul-24 07:33N 49°11' W 122°55'0 0.0
2014-Jul-24 06:33N 49°11' W 122°55'0 0.0
2014-Jul-24 05:33N 49°11' W 122°55'0 0.0
2014-Jul-24 04:33N 49°11' W 122°55'0 0.0
2014-Jul-24 03:33N 49°11' W 122°55'0 0.0
2014-Jul-24 02:33N 49°11' W 122°55'0 0.0
2014-Jul-24 01:33N 49°11' W 122°55'0 0.0
2014-Jul-24 00:33N 49°11' W 122°55'0 0.0
2014-Jul-23 23:33N 49°11' W 122°55'0 0.0
2014-Jul-23 22:33N 49°11' W 122°55'0 0.0
2014-Jul-23 21:33N 49°11' W 122°55'0 0.0
2014-Jul-23 20:33N 49°11' W 122°55'0 0.0
2014-Jul-23 19:33N 49°11' W 122°55'0 0.0
2014-Jul-23 18:33N 49°11' W 122°55'0 0.0
2014-Jul-23 17:33N 49°11' W 122°55'0 0.0
2014-Jul-23 16:33N 49°11' W 122°55'0 0.0
2014-Jul-23 15:33N 49°11' W 122°55'0 0.0
2014-Jul-23 14:33N 49°11' W 122°55'0 0.0
2014-Jul-23 13:33N 49°11' W 122°55'0 0.0
2014-Jul-23 12:33N 49°11' W 122°55'0 0.0
2014-Jul-23 11:33N 49°11' W 122°55'0 0.0
2014-Jul-23 10:33N 49°11' W 122°55'0 0.0
2014-Jul-23 09:33N 49°11' W 122°55'0 0.0
2014-Jul-23 08:33N 49°11' W 122°55'0 0.0
2014-Jul-23 07:33N 49°11' W 122°55'0 0.0
2014-Jul-23 06:33N 49°11' W 122°55'0 0.0
2014-Jul-23 05:33N 49°11' W 122°55'0 0.0
2014-Jul-23 04:33N 49°11' W 122°55'0 0.0
2014-Jul-23 03:33N 49°11' W 122°55'0 0.0
2014-Jul-23 02:34N 49°11' W 122°55'0 0.0
2014-Jul-23 01:33N 49°11' W 122°55'0 0.0
2014-Jul-23 00:33N 49°11' W 122°55'0 0.0
2014-Jul-22 23:33N 49°11' W 122°55'0 0.0
2014-Jul-22 22:33N 49°11' W 122°55'0 0.0
2014-Jul-22 21:33N 49°11' W 122°55'0 0.0
2014-Jul-22 20:33N 49°11' W 122°55'0 0.0
2014-Jul-22 19:33N 49°11' W 122°55'0 0.0
2014-Jul-22 18:33N 49°11' W 122°55'0 0.0
2014-Jul-22 17:33N 49°11' W 122°55'0 0.0
2014-Jul-22 16:33N 49°11' W 122°55'0 0.0
2014-Jul-22 15:33N 49°11' W 122°55'0 0.0
2014-Jul-22 14:33N 49°11' W 122°55'0 0.0
2014-Jul-22 13:33N 49°11' W 122°55'0 0.0
2014-Jul-22 12:33N 49°11' W 122°55'0 0.0
2014-Jul-22 11:33N 49°11' W 122°55'0 0.0
2014-Jul-22 10:33N 49°11' W 122°55'0 0.0
2014-Jul-22 09:33N 49°11' W 122°55'0 0.0
2014-Jul-22 08:33N 49°11' W 122°55'0 0.0
2014-Jul-22 07:33N 49°11' W 122°55'0 0.0
2014-Jul-22 06:33N 49°11' W 122°55'0 0.0
2014-Jul-22 05:33N 49°11' W 122°55'0 0.0
2014-Jul-22 04:33N 49°11' W 122°55'0 0.0
2014-Jul-22 03:33N 49°11' W 122°55'0 0.0
2014-Jul-22 02:33N 49°11' W 122°55'0 0.0
2014-Jul-22 01:33N 49°11' W 122°55'0 0.0
2014-Jul-22 00:33N 49°11' W 122°55'0 0.0
2014-Jul-21 23:33N 49°11' W 122°55'0 0.0
2014-Jul-21 22:33N 49°11' W 122°55'0 0.0
2014-Jul-21 21:33N 49°11' W 122°55'0 0.0
2014-Jul-21 20:33N 49°11' W 122°55'0 0.0
2014-Jul-21 20:18N 49°11' W 122°55'0 0.0
2014-Jul-21 19:33N 49°11' W 122°55'0 0.0
2014-Jul-21 18:33N 49°11' W 122°55'0 0.0
2014-Jul-21 17:33N 49°11' W 122°55'0 0.0
2014-Jul-21 16:33N 49°11' W 122°55'0 0.0
2014-Jul-21 15:33N 49°11' W 122°55'0 0.1
2014-Jul-21 14:33N 49°11' W 122°55'0 0.0
2014-Jul-21 13:33N 49°11' W 122°55'0 0.0
2014-Jul-21 12:33N 49°11' W 122°55'0 0.0
2014-Jul-21 11:33N 49°11' W 122°55'0 0.0
2014-Jul-21 10:33N 49°11' W 122°55'0 0.0
2014-Jul-21 09:33N 49°11' W 122°55'0 0.0
2014-Jul-21 08:33N 49°11' W 122°55'0 0.0
2014-Jul-21 07:33N 49°11' W 122°55'0 0.0
2014-Jul-21 06:33N 49°11' W 122°55'0 0.0
2014-Jul-21 05:33N 49°11' W 122°55'0 0.0
2014-Jul-21 04:33N 49°11' W 122°55'0 0.0
2014-Jul-21 03:33N 49°11' W 122°55'0 0.0
2014-Jul-21 02:33N 49°11' W 122°55'0 0.0
2014-Jul-21 01:33N 49°11' W 122°55'0 0.0
2014-Jul-21 00:33N 49°11' W 122°55'0 0.0
2014-Jul-20 23:33N 49°11' W 122°55'0 0.0
2014-Jul-20 22:33N 49°11' W 122°55'0 0.0
2014-Jul-20 21:33N 49°11' W 122°55'0 0.0
2014-Jul-20 20:33N 49°11' W 122°55'0 0.0
2014-Jul-20 19:33N 49°11' W 122°55'0 0.0
2014-Jul-20 18:33N 49°11' W 122°55'0 0.0
2014-Jul-20 17:33N 49°11' W 122°55'0 0.0
2014-Jul-20 16:33N 49°11' W 122°55'0 0.0
2014-Jul-20 15:33N 49°11' W 122°55'0 0.0
2014-Jul-20 14:33N 49°11' W 122°55'0 0.0
2014-Jul-20 13:33N 49°11' W 122°55'0 0.0
2014-Jul-20 12:33N 49°11' W 122°55'0 0.0
2014-Jul-20 11:33N 49°11' W 122°55'0 0.0
2014-Jul-20 10:33N 49°11' W 122°55'0 0.0
2014-Jul-20 09:33N 49°11' W 122°55'0 0.0
2014-Jul-20 08:33N 49°11' W 122°55'0 0.0
2014-Jul-20 07:33N 49°11' W 122°55'0 0.0
2014-Jul-20 06:33N 49°11' W 122°55'0 0.0
2014-Jul-20 05:33N 49°11' W 122°55'0 0.0
2014-Jul-20 04:33N 49°11' W 122°55'0 0.0
2014-Jul-20 03:33N 49°11' W 122°55'0 0.0
2014-Jul-20 02:33N 49°11' W 122°55'0 0.0
2014-Jul-20 01:33N 49°11' W 122°55'0 0.0
2014-Jul-20 00:33N 49°11' W 122°55'0 0.0
2014-Jul-19 23:33N 49°11' W 122°55'0 0.0
2014-Jul-19 22:33N 49°11' W 122°55'0 0.0
2014-Jul-19 21:33N 49°11' W 122°55'0 0.0
2014-Jul-19 20:33N 49°11' W 122°55'  
Track history (hours):
 
Tides and Currents Weather Stations Pressure Air Temp Water Temp Dewpoint Dewpoint Depression Visibility Wind Speed Wind Dir Waves Ship Positions

La Porsche

Last reported at 2014-Jul-29 20:31 UTC. Time now 2014-Sep-03 04:53 UTC.
Position N 48°33' W 124°27'.
Warning: this ship's position is 35 days out of date.

Length 22 m; draft 3 m.

Type: Fishing. MMSI: 316001649.

Date/timePositionNaut miles runAvg speedWind from/ knotsBaromVisibWave heightAir tempDewpointWater temp
2014-Jul-29 20:31N 48°33' W 124°27'0 0.3
2014-Jul-29 19:33N 48°34' W 124°27'0 0.4
2014-Jul-29 18:34N 48°33' W 124°28'1 0.6
2014-Jul-29 17:34N 48°33' W 124°28'0 0.2
2014-Jul-29 16:33N 48°33' W 124°29'5 4.7
2014-Jul-29 15:33N 48°29' W 124°24'9 8.6
2014-Jul-29 14:33N 48°25' W 124°13'8 8.1
2014-Jul-29 13:33N 48°22' W 124°02'21 6.9
2014-Jul-29 10:32N 48°16' W 123°32'6 6.6
2014-Jul-29 09:33N 48°19' W 123°23'8 8.1
2014-Jul-29 08:33N 48°24' W 123°14'8 8.1
2014-Jul-29 07:33N 48°32' W 123°13'10 9.6
2014-Jul-29 06:33N 48°41' W 123°16'10 9.0
2014-Jul-29 05:27N 48°51' W 123°21'7 8.0
2014-Jul-29 04:33N 48°57' W 123°18'9 8.6
2014-Jul-29 03:33N 49°06' W 123°18'7 7.5
2014-Jul-29 02:33N 49°07' W 123°07'8 8.5
2014-Jul-29 01:34N 49°10' W 122°55'0 0.5
2014-Jul-29 00:33N 49°11' W 122°55'0 0.0
2014-Jul-28 23:33N 49°11' W 122°55'0 0.0
2014-Jul-28 22:33N 49°11' W 122°55'0 0.0
2014-Jul-28 21:33N 49°11' W 122°55'0 0.0
2014-Jul-28 20:33N 49°11' W 122°55'0 0.0
2014-Jul-28 19:33N 49°11' W 122°55'0 0.0
2014-Jul-28 18:33N 49°11' W 122°55'0 0.0
2014-Jul-28 17:33N 49°11' W 122°55'0 0.0
2014-Jul-28 16:33N 49°11' W 122°55'0 0.0
2014-Jul-28 15:33N 49°11' W 122°55'0 0.0
2014-Jul-28 14:33N 49°11' W 122°55'0 0.0
2014-Jul-28 13:33N 49°11' W 122°55'0 0.0
2014-Jul-28 12:33N 49°11' W 122°55'0 0.0
2014-Jul-28 11:33N 49°11' W 122°55'0 0.0
2014-Jul-28 10:33N 49°11' W 122°55'0 0.0
2014-Jul-28 09:33N 49°11' W 122°55'0 0.0
2014-Jul-28 08:33N 49°11' W 122°55'0 0.0
2014-Jul-28 07:34N 49°11' W 122°55'0 0.0
2014-Jul-28 06:33N 49°11' W 122°55'0 0.0
2014-Jul-28 05:33N 49°11' W 122°55'0 0.0
2014-Jul-28 04:33N 49°11' W 122°55'0 0.0
2014-Jul-28 03:33N 49°11' W 122°55'0 0.0
2014-Jul-28 02:33N 49°11' W 122°55'0 0.0
2014-Jul-28 01:33N 49°11' W 122°55'0 0.0
2014-Jul-28 00:33N 49°11' W 122°55'0 0.0
2014-Jul-27 23:33N 49°11' W 122°55'0 0.0
2014-Jul-27 22:33N 49°11' W 122°55'0 0.0
2014-Jul-27 21:33N 49°11' W 122°55'0 0.0
2014-Jul-27 20:33N 49°11' W 122°55'0 0.0
2014-Jul-27 19:33N 49°11' W 122°55'0 0.0
2014-Jul-27 18:33N 49°11' W 122°55'0 0.0
2014-Jul-27 17:33N 49°11' W 122°55'0 0.0
2014-Jul-27 16:33N 49°11' W 122°55'0 0.0
2014-Jul-27 15:33N 49°11' W 122°55'0 0.0
2014-Jul-27 14:33N 49°11' W 122°55'0 0.0
2014-Jul-27 13:33N 49°11' W 122°55'0 0.0
2014-Jul-27 12:33N 49°11' W 122°55'0 0.0
2014-Jul-27 11:33N 49°11' W 122°55'0 0.0
2014-Jul-27 10:33N 49°11' W 122°55'0 0.0
2014-Jul-27 09:33N 49°11' W 122°55'0 0.0
2014-Jul-27 08:33N 49°11' W 122°55'0 0.0
2014-Jul-27 07:33N 49°11' W 122°55'0 0.0
2014-Jul-27 06:34N 49°11' W 122°55'0 0.0
2014-Jul-27 05:33N 49°11' W 122°55'0 0.0
2014-Jul-27 04:34N 49°11' W 122°55'0 0.0
2014-Jul-27 03:33N 49°11' W 122°55'0 0.0
2014-Jul-27 02:33N 49°11' W 122°55'0 0.0
2014-Jul-27 01:33N 49°11' W 122°55'0 0.0
2014-Jul-27 00:33N 49°11' W 122°55'0 0.0
2014-Jul-26 23:33N 49°11' W 122°55'0 0.0
2014-Jul-26 22:33N 49°11' W 122°55'0 0.0
2014-Jul-26 21:33N 49°11' W 122°55'0 0.0
2014-Jul-26 20:33N 49°11' W 122°55'0 0.0
2014-Jul-26 19:33N 49°11' W 122°55'0 0.0
2014-Jul-26 18:33N 49°11' W 122°55'0 0.0
2014-Jul-26 17:33N 49°11' W 122°55'0 0.0
2014-Jul-26 16:33N 49°11' W 122°55'0 0.0
2014-Jul-26 15:33N 49°11' W 122°55'0 0.0
2014-Jul-26 14:33N 49°11' W 122°55'0 0.0
2014-Jul-26 13:33N 49°11' W 122°55'0 0.0
2014-Jul-26 12:33N 49°11' W 122°55'0 0.0
2014-Jul-26 11:33N 49°11' W 122°55'0 0.0
2014-Jul-26 10:33N 49°11' W 122°55'0 0.0
2014-Jul-26 09:33N 49°11' W 122°55'0 0.0
2014-Jul-26 08:33N 49°11' W 122°55'0 0.0
2014-Jul-26 07:33N 49°11' W 122°55'0 0.0
2014-Jul-26 06:33N 49°11' W 122°55'0 0.0
2014-Jul-26 05:33N 49°11' W 122°55'0 0.0
2014-Jul-26 04:33N 49°11' W 122°55'0 0.0
2014-Jul-26 03:33N 49°11' W 122°55'0 0.0
2014-Jul-26 02:33N 49°11' W 122°55'0 0.0
2014-Jul-26 01:33N 49°11' W 122°55'0 0.0
2014-Jul-26 00:33N 49°11' W 122°55'0 0.0
2014-Jul-25 23:33N 49°11' W 122°55'0 0.0
2014-Jul-25 22:33N 49°11' W 122°55'0 0.0
2014-Jul-25 21:33N 49°11' W 122°55'0 0.0
2014-Jul-25 20:33N 49°11' W 122°55'0 0.0
2014-Jul-25 19:33N 49°11' W 122°55'0 0.0
2014-Jul-25 18:33N 49°11' W 122°55'0 0.0
2014-Jul-25 17:33N 49°11' W 122°55'0 0.0
2014-Jul-25 16:33N 49°11' W 122°55'0 0.0
2014-Jul-25 15:33N 49°11' W 122°55'0 0.0
2014-Jul-25 14:33N 49°11' W 122°55'0 0.0
2014-Jul-25 13:33N 49°11' W 122°55'0 0.0
2014-Jul-25 12:33N 49°11' W 122°55'0 0.0
2014-Jul-25 11:33N 49°11' W 122°55'0 0.0
2014-Jul-25 10:33N 49°11' W 122°55'0 0.0
2014-Jul-25 09:33N 49°11' W 122°55'0 0.0
2014-Jul-25 08:33N 49°11' W 122°55'0 0.0
2014-Jul-25 07:33N 49°11' W 122°55'0 0.0
2014-Jul-25 06:33N 49°11' W 122°55'0 0.0
2014-Jul-25 05:33N 49°11' W 122°55'0 0.0
2014-Jul-25 04:33N 49°11' W 122°55'0 0.0
2014-Jul-25 03:33N 49°11' W 122°55'0 0.0
2014-Jul-25 02:33N 49°11' W 122°55'0 0.0
2014-Jul-25 01:33N 49°11' W 122°55'0 0.0
2014-Jul-25 00:33N 49°11' W 122°55'0 0.0
2014-Jul-24 23:34N 49°11' W 122°55'0 0.0
2014-Jul-24 22:33N 49°11' W 122°55'0 0.0
2014-Jul-24 21:33N 49°11' W 122°55'0 0.0
2014-Jul-24 20:33N 49°11' W 122°55'0 0.0
2014-Jul-24 19:33N 49°11' W 122°55'0 0.0
2014-Jul-24 18:33N 49°11' W 122°55'0 0.0
2014-Jul-24 17:33N 49°11' W 122°55'0 0.0
2014-Jul-24 16:33N 49°11' W 122°55'0 0.0
2014-Jul-24 15:33N 49°11' W 122°55'0 0.0
2014-Jul-24 14:33N 49°11' W 122°55'0 0.0
2014-Jul-24 13:33N 49°11' W 122°55'0 0.0
2014-Jul-24 12:33N 49°11' W 122°55'0 0.0
2014-Jul-24 08:33N 49°11' W 122°55'0 0.0
2014-Jul-24 07:33N 49°11' W 122°55'0 0.0
2014-Jul-24 06:33N 49°11' W 122°55'0 0.0
2014-Jul-24 05:33N 49°11' W 122°55'0 0.0
2014-Jul-24 04:33N 49°11' W 122°55'0 0.0
2014-Jul-24 03:33N 49°11' W 122°55'0 0.0
2014-Jul-24 02:33N 49°11' W 122°55'0 0.0
2014-Jul-24 01:33N 49°11' W 122°55'0 0.0
2014-Jul-24 00:33N 49°11' W 122°55'0 0.0
2014-Jul-23 23:33N 49°11' W 122°55'0 0.0
2014-Jul-23 22:33N 49°11' W 122°55'0 0.0
2014-Jul-23 21:33N 49°11' W 122°55'0 0.0
2014-Jul-23 20:33N 49°11' W 122°55'0 0.0
2014-Jul-23 19:33N 49°11' W 122°55'0 0.0
2014-Jul-23 18:33N 49°11' W 122°55'0 0.0
2014-Jul-23 17:33N 49°11' W 122°55'0 0.0
2014-Jul-23 16:33N 49°11' W 122°55'0 0.0
2014-Jul-23 15:33N 49°11' W 122°55'0 0.0
2014-Jul-23 14:33N 49°11' W 122°55'0 0.0
2014-Jul-23 13:33N 49°11' W 122°55'0 0.0
2014-Jul-23 12:33N 49°11' W 122°55'0 0.0
2014-Jul-23 11:33N 49°11' W 122°55'0 0.0
2014-Jul-23 10:33N 49°11' W 122°55'0 0.0
2014-Jul-23 09:33N 49°11' W 122°55'0 0.0
2014-Jul-23 08:33N 49°11' W 122°55'0 0.0
2014-Jul-23 07:33N 49°11' W 122°55'0 0.0
2014-Jul-23 06:33N 49°11' W 122°55'0 0.0
2014-Jul-23 05:33N 49°11' W 122°55'0 0.0
2014-Jul-23 04:33N 49°11' W 122°55'0 0.0
2014-Jul-23 03:33N 49°11' W 122°55'0 0.0
2014-Jul-23 02:34N 49°11' W 122°55'0 0.0
2014-Jul-23 01:33N 49°11' W 122°55'0 0.0
2014-Jul-23 00:33N 49°11' W 122°55'0 0.0
2014-Jul-22 23:33N 49°11' W 122°55'0 0.0
2014-Jul-22 22:33N 49°11' W 122°55'0 0.0
2014-Jul-22 21:33N 49°11' W 122°55'0 0.0
2014-Jul-22 20:33N 49°11' W 122°55'0 0.0
2014-Jul-22 19:33N 49°11' W 122°55'0 0.0
2014-Jul-22 18:33N 49°11' W 122°55'0 0.0
2014-Jul-22 17:33N 49°11' W 122°55'0 0.0
2014-Jul-22 16:33N 49°11' W 122°55'0 0.0
2014-Jul-22 15:33N 49°11' W 122°55'0 0.0
2014-Jul-22 14:33N 49°11' W 122°55'0 0.0
2014-Jul-22 13:33N 49°11' W 122°55'0 0.0
2014-Jul-22 12:33N 49°11' W 122°55'0 0.0
2014-Jul-22 11:33N 49°11' W 122°55'0 0.0
2014-Jul-22 10:33N 49°11' W 122°55'0 0.0
2014-Jul-22 09:33N 49°11' W 122°55'0 0.0
2014-Jul-22 08:33N 49°11' W 122°55'0 0.0
2014-Jul-22 07:33N 49°11' W 122°55'0 0.0
2014-Jul-22 06:33N 49°11' W 122°55'0 0.0
2014-Jul-22 05:33N 49°11' W 122°55'0 0.0
2014-Jul-22 04:33N 49°11' W 122°55'0 0.0
2014-Jul-22 03:33N 49°11' W 122°55'0 0.0
2014-Jul-22 02:33N 49°11' W 122°55'0 0.0
2014-Jul-22 01:33N 49°11' W 122°55'0 0.0
2014-Jul-22 00:33N 49°11' W 122°55'0 0.0
2014-Jul-21 23:33N 49°11' W 122°55'0 0.0
2014-Jul-21 22:33N 49°11' W 122°55'0 0.0
2014-Jul-21 21:33N 49°11' W 122°55'0 0.0
2014-Jul-21 20:33N 49°11' W 122°55'0 0.0
2014-Jul-21 20:18N 49°11' W 122°55'0 0.0
2014-Jul-21 19:33N 49°11' W 122°55'0 0.0
2014-Jul-21 18:33N 49°11' W 122°55'0 0.0
2014-Jul-21 17:33N 49°11' W 122°55'0 0.0
2014-Jul-21 16:33N 49°11' W 122°55'0 0.0
2014-Jul-21 15:33N 49°11' W 122°55'0 0.1
2014-Jul-21 14:33N 49°11' W 122°55'0 0.0
2014-Jul-21 13:33N 49°11' W 122°55'0 0.0
2014-Jul-21 12:33N 49°11' W 122°55'0 0.0
2014-Jul-21 11:33N 49°11' W 122°55'0 0.0
2014-Jul-21 10:33N 49°11' W 122°55'0 0.0
2014-Jul-21 09:33N 49°11' W 122°55'0 0.0
2014-Jul-21 08:33N 49°11' W 122°55'0 0.0
2014-Jul-21 07:33N 49°11' W 122°55'0 0.0
2014-Jul-21 06:33N 49°11' W 122°55'0 0.0
2014-Jul-21 05:33N 49°11' W 122°55'0 0.0
2014-Jul-21 04:33N 49°11' W 122°55'0 0.0
2014-Jul-21 03:33N 49°11' W 122°55'0 0.0
2014-Jul-21 02:33N 49°11' W 122°55'0 0.0
2014-Jul-21 01:33N 49°11' W 122°55'0 0.0
2014-Jul-21 00:33N 49°11' W 122°55'0 0.0
2014-Jul-20 23:33N 49°11' W 122°55'0 0.0
2014-Jul-20 22:33N 49°11' W 122°55'0 0.0
2014-Jul-20 21:33N 49°11' W 122°55'0 0.0
2014-Jul-20 20:33N 49°11' W 122°55'0 0.0
2014-Jul-20 19:33N 49°11' W 122°55'0 0.0
2014-Jul-20 18:33N 49°11' W 122°55'0 0.0
2014-Jul-20 17:33N 49°11' W 122°55'0 0.0
2014-Jul-20 16:33N 49°11' W 122°55'0 0.0
2014-Jul-20 15:33N 49°11' W 122°55'0 0.0
2014-Jul-20 14:33N 49°11' W 122°55'0 0.0
2014-Jul-20 13:33N 49°11' W 122°55'0 0.0
2014-Jul-20 12:33N 49°11' W 122°55'0 0.0
2014-Jul-20 11:33N 49°11' W 122°55'0 0.0
2014-Jul-20 10:33N 49°11' W 122°55'0 0.0
2014-Jul-20 09:33N 49°11' W 122°55'0 0.0
2014-Jul-20 08:33N 49°11' W 122°55'0 0.0
2014-Jul-20 07:33N 49°11' W 122°55'0 0.0
2014-Jul-20 06:33N 49°11' W 122°55'0 0.0
2014-Jul-20 05:33N 49°11' W 122°55'0 0.0
2014-Jul-20 04:33N 49°11' W 122°55'0 0.0
2014-Jul-20 03:33N 49°11' W 122°55'0 0.0
2014-Jul-20 02:33N 49°11' W 122°55'0 0.0
2014-Jul-20 01:33N 49°11' W 122°55'0 0.0
2014-Jul-20 00:33N 49°11' W 122°55'0 0.0
2014-Jul-19 23:33N 49°11' W 122°55'0 0.0
2014-Jul-19 22:33N 49°11' W 122°55'0 0.0
2014-Jul-19 21:33N 49°11' W 122°55'0 0.0
2014-Jul-19 20:33N 49°11' W 122°55'  

Dump ship's entire track history